Time,TemperatureF,DewpointF,PressureIn,WindDirection,WindDirectionDegrees,WindSpeedMPH,WindSpeedGustMPH,Humidity,HourlyPrecipIn,Conditions,Clouds,dailyrainin,SoftwareType,DateUTC
2013-12-23 00:01:00,-8.0,-15.2,30.35,NW,317,4.0,4.0,70,0.00,,,0.00,vanprod-2.3,2013-12-23 06:01:00,
2013-12-23 00:06:00,-8.0,-14.9,30.35,NW,305,3.0,7.0,71,0.00,,,0.00,vanprod-2.3,2013-12-23 06:06:00,
2013-12-23 00:11:00,-8.0,-15.2,30.34,WNW,297,3.0,8.0,70,0.00,,,0.00,vanprod-2.3,2013-12-23 06:11:00,
2013-12-23 00:16:00,-8.0,-15.2,30.34,NNW,329,5.0,6.0,70,0.00,,,0.00,vanprod-2.3,2013-12-23 06:16:00,
2013-12-23 00:21:00,-8.0,-15.2,30.35,WNW,302,13.0,13.0,70,0.00,,,0.00,vanprod-2.3,2013-12-23 06:21:00,
2013-12-23 00:26:00,-8.0,-15.2,30.35,NNW,332,6.0,10.0,70,0.00,,,0.00,vanprod-2.3,2013-12-23 06:26:00,
2013-12-23 00:31:00,-8.0,-15.2,30.35,North,353,4.0,4.0,70,0.00,,,0.00,vanprod-2.3,2013-12-23 06:31:00,
2013-12-23 00:36:00,-8.0,-15.2,30.35,NNW,336,6.0,6.0,70,0.00,,,0.00,vanprod-2.3,2013-12-23 06:36:00,
2013-12-23 00:41:00,-8.0,-15.2,30.35,NW,313,5.0,8.0,70,0.00,,,0.00,vanprod-2.3,2013-12-23 06:41:00,
2013-12-23 00:46:00,-8.2,-15.3,30.35,NNW,330,5.0,11.0,70,0.00,,,0.00,vanprod-2.3,2013-12-23 06:46:00,
2013-12-23 00:51:00,-8.2,-15.3,30.35,NNW,344,4.0,5.0,70,0.00,,,0.00,vanprod-2.3,2013-12-23 06:51:00,
2013-12-23 00:56:00,-8.2,-15.3,30.35,NNW,340,4.0,6.0,70,0.00,,,0.00,vanprod-2.3,2013-12-23 06:56:00,
2013-12-23 01:01:00,-8.4,-15.5,30.35,NW,312,4.0,10.0,70,0.00,,,0.00,vanprod-2.3,2013-12-23 07:01:00,
2013-12-23 01:06:00,-8.4,-15.5,30.35,NNW,348,4.0,6.0,70,0.00,,,0.00,vanprod-2.3,2013-12-23 07:06:00,
2013-12-23 01:11:00,-8.4,-15.5,30.35,NW,322,5.0,7.0,70,0.00,,,0.00,vanprod-2.3,2013-12-23 07:11:00,
2013-12-23 01:16:00,-8.7,-15.8,30.36,North,349,5.0,5.0,70,0.00,,,0.00,vanprod-2.3,2013-12-23 07:16:00,
2013-12-23 01:21:00,-8.7,-16.1,30.36,WNW,292,3.0,8.0,69,0.00,,,0.00,vanprod-2.3,2013-12-23 07:21:00,
2013-12-23 01:26:00,-8.9,-16.3,30.36,NNW,335,4.0,7.0,69,0.00,,,0.00,vanprod-2.3,2013-12-23 07:26:00,
2013-12-23 01:31:00,-9.1,-16.2,30.36,WNW,298,3.0,3.0,70,0.00,,,0.00,vanprod-2.3,2013-12-23 07:31:00,
2013-12-23 01:36:00,-9.1,-16.2,30.36,NW,323,5.0,8.0,70,0.00,,,0.00,vanprod-2.3,2013-12-23 07:36:00,
2013-12-23 01:41:00,-9.4,-16.5,30.36,NNW,347,3.0,6.0,70,0.00,,,0.00,vanprod-2.3,2013-12-23 07:41:00,
2013-12-23 01:46:00,-9.4,-16.8,30.37,NW,325,3.0,3.0,69,0.00,,,0.00,vanprod-2.3,2013-12-23 07:46:00,
2013-12-23 01:51:00,-9.4,-16.8,30.37,NNW,329,4.0,7.0,69,0.00,,,0.00,vanprod-2.3,2013-12-23 07:51:00,
2013-12-23 01:56:00,-9.4,-16.8,30.37,NNW,338,5.0,11.0,69,0.00,,,0.00,vanprod-2.3,2013-12-23 07:56:00,
2013-12-23 02:01:00,-9.4,-16.8,30.37,WNW,295,2.0,3.0,69,0.00,,,0.00,vanprod-2.3,2013-12-23 08:01:00,
2013-12-23 02:06:00,-9.6,-17.0,30.37,NNW,334,5.0,5.0,69,0.00,,,0.00,vanprod-2.3,2013-12-23 08:06:00,
2013-12-23 02:11:00,-9.6,-17.0,30.37,NNW,337,3.0,7.0,69,0.00,,,0.00,vanprod-2.3,2013-12-23 08:11:00,
2013-12-23 02:16:00,-9.6,-17.0,30.37,North,350,5.0,6.0,69,0.00,,,0.00,vanprod-2.3,2013-12-23 08:16:00,
2013-12-23 02:21:00,-9.6,-17.0,30.37,NNW,336,4.0,8.0,69,0.00,,,0.00,vanprod-2.3,2013-12-23 08:21:00,
2013-12-23 02:26:00,-9.6,-17.0,30.38,NW,305,4.0,10.0,69,0.00,,,0.00,vanprod-2.3,2013-12-23 08:26:00,
2013-12-23 02:31:00,-9.6,-17.0,30.38,WNW,300,5.0,6.0,69,0.00,,,0.00,vanprod-2.3,2013-12-23 08:31:00,
2013-12-23 02:36:00,-9.8,-17.2,30.38,WNW,302,3.0,11.0,69,0.00,,,0.00,vanprod-2.3,2013-12-23 08:36:00,
2013-12-23 02:41:00,-9.8,-17.2,30.38,NNW,335,3.0,4.0,69,0.00,,,0.00,vanprod-2.3,2013-12-23 08:41:00,
2013-12-23 02:46:00,-9.8,-17.2,30.38,NW,304,6.0,9.0,69,0.00,,,0.00,vanprod-2.3,2013-12-23 08:46:00,
2013-12-23 02:51:00,-9.8,-17.2,30.39,NNW,327,4.0,6.0,69,0.00,,,0.00,vanprod-2.3,2013-12-23 08:51:00,
2013-12-23 02:56:00,-9.8,-17.5,30.39,NW,311,4.0,6.0,68,0.00,,,0.00,vanprod-2.3,2013-12-23 08:56:00,
2013-12-23 03:01:00,-10.1,-17.7,30.39,NW,322,6.0,8.0,68,0.00,,,0.00,vanprod-2.3,2013-12-23 09:01:00,
2013-12-23 03:06:00,-10.1,-17.7,30.39,NW,313,3.0,3.0,68,0.00,,,0.00,vanprod-2.3,2013-12-23 09:06:00,
2013-12-23 03:11:00,-10.3,-18.2,30.39,NNW,332,5.0,6.0,67,0.00,,,0.00,vanprod-2.3,2013-12-23 09:11:00,
2013-12-23 03:16:00,-10.3,-18.2,30.39,NW,317,4.0,4.0,67,0.00,,,0.00,vanprod-2.3,2013-12-23 09:16:00,
2013-12-23 03:21:00,-10.5,-18.4,30.39,NNW,331,6.0,8.0,67,0.00,,,0.00,vanprod-2.3,2013-12-23 09:21:00,
2013-12-23 03:26:00,-10.5,-18.4,30.39,NW,316,3.0,4.0,67,0.00,,,0.00,vanprod-2.3,2013-12-23 09:26:00,
2013-12-23 03:31:00,-10.5,-18.4,30.39,NNW,332,5.0,5.0,67,0.00,,,0.00,vanprod-2.3,2013-12-23 09:31:00,
2013-12-23 03:36:00,-10.8,-18.7,30.39,NW,316,5.0,10.0,67,0.00,,,0.00,vanprod-2.3,2013-12-23 09:36:00,
2013-12-23 03:41:00,-10.8,-18.7,30.40,North,354,7.0,8.0,67,0.00,,,0.00,vanprod-2.3,2013-12-23 09:41:00,
2013-12-23 03:46:00,-10.8,-18.7,30.40,North,360,3.0,3.0,67,0.00,,,0.00,vanprod-2.3,2013-12-23 09:46:00,
2013-12-23 03:51:00,-11.0,-18.9,30.40,NW,310,6.0,10.0,67,0.00,,,0.00,vanprod-2.3,2013-12-23 09:51:00,
2013-12-23 03:56:00,-11.0,-18.9,30.40,NW,312,4.0,6.0,67,0.00,,,0.00,vanprod-2.3,2013-12-23 09:56:00,
2013-12-23 04:01:00,-11.2,-19.1,30.40,NW,316,6.0,11.0,67,0.00,,,0.00,vanprod-2.3,2013-12-23 10:01:00,
2013-12-23 04:06:00,-11.2,-19.4,30.40,NNW,330,5.0,5.0,66,0.00,,,0.00,vanprod-2.3,2013-12-23 10:06:00,
2013-12-23 04:11:00,-11.2,-19.4,30.40,West,273,5.0,6.0,66,0.00,,,0.00,vanprod-2.3,2013-12-23 10:11:00,
2013-12-23 04:16:00,-11.2,-19.4,30.40,WNW,301,5.0,9.0,66,0.00,,,0.00,vanprod-2.3,2013-12-23 10:16:00,
2013-12-23 04:21:00,-11.2,-19.4,30.41,NNW,334,7.0,12.0,66,0.00,,,0.00,vanprod-2.3,2013-12-23 10:21:00,
2013-12-23 04:26:00,-11.5,-19.7,30.41,NW,315,4.0,12.0,66,0.00,,,0.00,vanprod-2.3,2013-12-23 10:26:00,
2013-12-23 04:31:00,-11.5,-19.7,30.41,NW,314,6.0,10.0,66,0.00,,,0.00,vanprod-2.3,2013-12-23 10:31:00,
2013-12-23 04:36:00,-11.5,-19.7,30.41,NW,315,4.0,4.0,66,0.00,,,0.00,vanprod-2.3,2013-12-23 10:36:00,
2013-12-23 04:41:00,-11.5,-19.7,30.41,NNW,342,3.0,6.0,66,0.00,,,0.00,vanprod-2.3,2013-12-23 10:41:00,
2013-12-23 04:46:00,-11.5,-19.7,30.41,NW,314,7.0,12.0,66,0.00,,,0.00,vanprod-2.3,2013-12-23 10:46:00,
2013-12-23 04:51:00,-11.7,-19.9,30.41,NW,315,5.0,11.0,66,0.00,,,0.00,vanprod-2.3,2013-12-23 10:51:00,
2013-12-23 04:56:00,-11.7,-20.1,30.41,NW,312,4.0,5.0,65,0.00,,,0.00,vanprod-2.3,2013-12-23 10:56:00,
2013-12-23 05:01:00,-11.7,-20.1,30.41,NW,310,4.0,7.0,65,0.00,,,0.00,vanprod-2.3,2013-12-23 11:01:00,
2013-12-23 05:06:00,-11.7,-20.1,30.41,NW,317,4.0,5.0,65,0.00,,,0.00,vanprod-2.3,2013-12-23 11:06:00,
2013-12-23 05:11:00,-12.0,-20.4,30.42,NW,317,4.0,7.0,65,0.00,,,0.00,vanprod-2.3,2013-12-23 11:11:00,
2013-12-23 05:16:00,-12.0,-20.4,30.42,NW,326,5.0,7.0,65,0.00,,,0.00,vanprod-2.3,2013-12-23 11:16:00,
2013-12-23 05:21:00,-12.0,-20.4,30.42,NW,320,4.0,8.0,65,0.00,,,0.00,vanprod-2.3,2013-12-23 11:21:00,
2013-12-23 05:26:00,-12.2,-20.6,30.42,NNW,335,5.0,5.0,65,0.00,,,0.00,vanprod-2.3,2013-12-23 11:26:00,
2013-12-23 05:31:00,-12.2,-20.6,30.42,NW,312,4.0,5.0,65,0.00,,,0.00,vanprod-2.3,2013-12-23 11:31:00,
2013-12-23 05:36:00,-12.2,-20.3,30.42,NW,319,4.0,4.0,66,0.00,,,0.00,vanprod-2.3,2013-12-23 11:36:00,
2013-12-23 05:41:00,-12.2,-20.3,30.43,NNW,332,4.0,5.0,66,0.00,,,0.00,vanprod-2.3,2013-12-23 11:41:00,
2013-12-23 05:46:00,-12.2,-20.3,30.43,NNW,327,6.0,11.0,66,0.00,,,0.00,vanprod-2.3,2013-12-23 11:46:00,
2013-12-23 05:51:00,-12.5,-20.6,30.43,NNW,331,4.0,10.0,66,0.00,,,0.00,vanprod-2.3,2013-12-23 11:51:00,
2013-12-23 05:56:00,-12.5,-20.6,30.43,NNW,338,4.0,8.0,66,0.00,,,0.00,vanprod-2.3,2013-12-23 11:56:00,
2013-12-23 06:01:00,-12.5,-20.6,30.43,NW,312,4.0,4.0,66,0.00,,,0.00,vanprod-2.3,2013-12-23 12:01:00,
2013-12-23 06:06:00,-12.5,-20.6,30.43,NW,315,4.0,6.0,66,0.00,,,0.00,vanprod-2.3,2013-12-23 12:06:00,
2013-12-23 06:11:00,-12.7,-20.8,30.44,NW,321,4.0,4.0,66,0.00,,,0.00,vanprod-2.3,2013-12-23 12:11:00,
2013-12-23 06:16:00,-12.7,-20.8,30.44,NW,318,5.0,5.0,66,0.00,,,0.00,vanprod-2.3,2013-12-23 12:16:00,
2013-12-23 06:21:00,-12.7,-20.8,30.44,NW,308,4.0,5.0,66,0.00,,,0.00,vanprod-2.3,2013-12-23 12:21:00,
2013-12-23 06:26:00,-12.7,-20.8,30.44,North,354,4.0,4.0,66,0.00,,,0.00,vanprod-2.3,2013-12-23 12:26:00,
2013-12-23 06:31:00,-12.7,-20.8,30.44,NNW,328,6.0,11.0,66,0.00,,,0.00,vanprod-2.3,2013-12-23 12:31:00,
2013-12-23 06:36:00,-12.7,-20.8,30.44,NW,323,7.0,8.0,66,0.00,,,0.00,vanprod-2.3,2013-12-23 12:36:00,
2013-12-23 06:41:00,-12.7,-20.8,30.45,NW,314,4.0,5.0,66,0.00,,,0.00,vanprod-2.3,2013-12-23 12:41:00,
2013-12-23 06:46:00,-12.7,-20.8,30.45,NNW,333,5.0,11.0,66,0.00,,,0.00,vanprod-2.3,2013-12-23 12:46:00,
2013-12-23 06:51:00,-13.0,-21.1,30.45,NNW,333,5.0,6.0,66,0.00,,,0.00,vanprod-2.3,2013-12-23 12:51:00,
2013-12-23 06:56:00,-13.0,-21.1,30.45,NNW,341,4.0,4.0,66,0.00,,,0.00,vanprod-2.3,2013-12-23 12:56:00,
2013-12-23 07:01:00,-13.0,-21.1,30.45,WNW,293,6.0,11.0,66,0.00,,,0.00,vanprod-2.3,2013-12-23 13:01:00,
2013-12-23 07:06:00,-13.3,-21.4,30.45,NNW,337,4.0,8.0,66,0.00,,,0.00,vanprod-2.3,2013-12-23 13:06:00,
2013-12-23 07:11:00,-13.3,-21.4,30.46,NW,318,8.0,14.0,66,0.00,,,0.00,vanprod-2.3,2013-12-23 13:11:00,
2013-12-23 07:16:00,-13.5,-21.6,30.46,NW,304,5.0,8.0,66,0.00,,,0.00,vanprod-2.3,2013-12-23 13:16:00,
2013-12-23 07:21:00,-13.5,-21.6,30.46,NNW,329,4.0,10.0,66,0.00,,,0.00,vanprod-2.3,2013-12-23 13:21:00,
2013-12-23 07:26:00,-13.5,-21.6,30.46,NNW,328,4.0,7.0,66,0.00,,,0.00,vanprod-2.3,2013-12-23 13:26:00,
2013-12-23 07:31:00,-13.5,-21.6,30.46,NW,316,6.0,6.0,66,0.00,,,0.00,vanprod-2.3,2013-12-23 13:31:00,
2013-12-23 07:36:00,-13.8,-21.9,30.46,WNW,292,3.0,3.0,66,0.00,,,0.00,vanprod-2.3,2013-12-23 13:36:00,
2013-12-23 07:41:00,-13.8,-21.9,30.46,NNW,328,5.0,7.0,66,0.00,,,0.00,vanprod-2.3,2013-12-23 13:41:00,
2013-12-23 07:46:00,-13.8,-21.9,30.46,NW,318,6.0,6.0,66,0.00,,,0.00,vanprod-2.3,2013-12-23 13:46:00,
2013-12-23 07:51:00,-13.8,-21.9,30.46,NW,314,3.0,6.0,66,0.00,,,0.00,vanprod-2.3,2013-12-23 13:51:00,
2013-12-23 07:56:00,-14.0,-22.1,30.47,NNW,342,5.0,7.0,66,0.00,,,0.00,vanprod-2.3,2013-12-23 13:56:00,
2013-12-23 08:01:00,-14.0,-22.1,30.47,NW,319,5.0,5.0,66,0.00,,,0.00,vanprod-2.3,2013-12-23 14:01:00,
2013-12-23 08:06:00,-14.0,-22.1,30.47,NW,325,3.0,6.0,66,0.00,,,0.00,vanprod-2.3,2013-12-23 14:06:00,
2013-12-23 08:11:00,-14.0,-22.1,30.48,WNW,299,4.0,4.0,66,0.00,,,0.00,vanprod-2.3,2013-12-23 14:11:00,
2013-12-23 08:16:00,-14.3,-22.3,30.48,NW,316,5.0,7.0,66,0.00,,,0.00,vanprod-2.3,2013-12-23 14:16:00,
2013-12-23 08:21:00,-14.3,-22.3,30.48,NW,316,5.0,7.0,66,0.00,,,0.00,vanprod-2.3,2013-12-23 14:21:00,
2013-12-23 08:26:00,-14.3,-22.3,30.48,North,350,3.0,5.0,66,0.00,,,0.00,vanprod-2.3,2013-12-23 14:26:00,
2013-12-23 08:31:00,-14.3,-22.3,30.48,NW,323,4.0,7.0,66,0.00,,,0.00,vanprod-2.3,2013-12-23 14:31:00,
2013-12-23 08:36:00,-14.3,-22.3,30.48,NW,311,5.0,8.0,66,0.00,,,0.00,vanprod-2.3,2013-12-23 14:36:00,
2013-12-23 08:41:00,-14.3,-22.3,30.49,NW,322,5.0,12.0,66,0.00,,,0.00,vanprod-2.3,2013-12-23 14:41:00,
2013-12-23 08:46:00,-14.0,-22.1,30.49,NW,324,4.0,6.0,66,0.00,,,0.00,vanprod-2.3,2013-12-23 14:46:00,
2013-12-23 08:51:00,-14.0,-22.1,30.49,WNW,301,4.0,4.0,66,0.00,,,0.00,vanprod-2.3,2013-12-23 14:51:00,
2013-12-23 08:56:00,-14.0,-22.1,30.49,NW,314,4.0,7.0,66,0.00,,,0.00,vanprod-2.3,2013-12-23 14:56:00,
2013-12-23 09:01:00,-13.8,-22.2,30.49,NW,322,5.0,8.0,65,0.00,,,0.00,vanprod-2.3,2013-12-23 15:01:00,
2013-12-23 09:06:00,-13.8,-22.2,30.49,NNW,346,5.0,6.0,65,0.00,,,0.00,vanprod-2.3,2013-12-23 15:06:00,
2013-12-23 09:11:00,-13.8,-22.2,30.49,NW,304,4.0,6.0,65,0.00,,,0.00,vanprod-2.3,2013-12-23 15:11:00,
2013-12-23 09:16:00,-13.5,-21.9,30.49,WNW,292,3.0,3.0,65,0.00,,,0.00,vanprod-2.3,2013-12-23 15:16:00,
2013-12-23 09:21:00,-13.5,-21.9,30.49,NW,322,5.0,5.0,65,0.00,,,0.00,vanprod-2.3,2013-12-23 15:21:00,
2013-12-23 09:26:00,-13.3,-21.7,30.50,NW,326,5.0,9.0,65,0.00,,,0.00,vanprod-2.3,2013-12-23 15:26:00,
2013-12-23 09:31:00,-13.3,-22.0,30.50,WNW,295,5.0,5.0,64,0.00,,,0.00,vanprod-2.3,2013-12-23 15:31:00,
2013-12-23 09:36:00,-13.3,-22.0,30.50,NNW,335,5.0,6.0,64,0.00,,,0.00,vanprod-2.3,2013-12-23 15:36:00,
2013-12-23 09:41:00,-13.0,-21.7,30.50,WNW,294,4.0,4.0,64,0.00,,,0.00,vanprod-2.3,2013-12-23 15:41:00,
2013-12-23 09:46:00,-12.7,-21.4,30.50,NW,316,3.0,8.0,64,0.00,,,0.00,vanprod-2.3,2013-12-23 15:46:00,
2013-12-23 09:51:00,-12.7,-21.4,30.51,NNW,346,5.0,7.0,64,0.00,,,0.00,vanprod-2.3,2013-12-23 15:51:00,
2013-12-23 09:56:00,-12.5,-21.2,30.51,NNW,335,3.0,3.0,64,0.00,,,0.00,vanprod-2.3,2013-12-23 15:56:00,
2013-12-23 10:01:00,-12.2,-21.2,30.51,NW,310,3.0,5.0,63,0.00,,,0.00,vanprod-2.3,2013-12-23 16:01:00,
2013-12-23 10:06:00,-12.2,-21.2,30.51,NNW,327,3.0,7.0,63,0.00,,,0.00,vanprod-2.3,2013-12-23 16:06:00,
2013-12-23 10:11:00,-12.0,-21.0,30.51,NW,315,5.0,10.0,63,0.00,,,0.00,vanprod-2.3,2013-12-23 16:11:00,
2013-12-23 10:16:00,-12.0,-21.0,30.51,NW,317,5.0,8.0,63,0.00,,,0.00,vanprod-2.3,2013-12-23 16:16:00,
2013-12-23 10:21:00,-11.7,-20.7,30.51,NNW,336,5.0,5.0,63,0.00,,,0.00,vanprod-2.3,2013-12-23 16:21:00,
2013-12-23 10:26:00,-11.7,-20.7,30.51,WSW,258,2.0,2.0,63,0.00,,,0.00,vanprod-2.3,2013-12-23 16:26:00,
2013-12-23 10:31:00,-11.2,-20.6,30.51,NNW,328,4.0,5.0,62,0.00,,,0.00,vanprod-2.3,2013-12-23 16:31:00,
2013-12-23 10:36:00,-10.8,-20.2,30.52,NW,321,7.0,8.0,62,0.00,,,0.00,vanprod-2.3,2013-12-23 16:36:00,
2013-12-23 10:41:00,-11.0,-20.7,30.52,North,350,4.0,4.0,61,0.00,,,0.00,vanprod-2.3,2013-12-23 16:41:00,
2013-12-23 10:46:00,-10.5,-19.9,30.52,NW,311,4.0,7.0,62,0.00,,,0.00,vanprod-2.3,2013-12-23 16:46:00,
2013-12-23 10:51:00,-10.3,-20.0,30.52,NW,322,6.0,6.0,61,0.00,,,0.00,vanprod-2.3,2013-12-23 16:51:00,
2013-12-23 10:56:00,-10.1,-19.8,30.52,NW,315,6.0,8.0,61,0.00,,,0.00,vanprod-2.3,2013-12-23 16:56:00,
2013-12-23 11:01:00,-9.8,-19.6,30.52,NNW,332,4.0,4.0,61,0.00,,,0.00,vanprod-2.3,2013-12-23 17:01:00,
2013-12-23 11:06:00,-9.6,-19.4,30.52,WNW,300,5.0,10.0,61,0.00,,,0.00,vanprod-2.3,2013-12-23 17:06:00,
2013-12-23 11:11:00,-9.4,-19.2,30.52,NW,321,3.0,4.0,61,0.00,,,0.00,vanprod-2.3,2013-12-23 17:11:00,
2013-12-23 11:16:00,-9.1,-19.2,30.52,NW,314,6.0,11.0,60,0.00,,,0.00,vanprod-2.3,2013-12-23 17:16:00,
2013-12-23 11:21:00,-9.4,-19.5,30.52,NNW,330,5.0,10.0,60,0.00,,,0.00,vanprod-2.3,2013-12-23 17:21:00,
2013-12-23 11:26:00,-9.1,-18.9,30.51,NNW,328,4.0,4.0,61,0.00,,,0.00,vanprod-2.3,2013-12-23 17:26:00,
2013-12-23 11:31:00,-9.1,-19.2,30.51,NNW,329,6.0,11.0,60,0.00,,,0.00,vanprod-2.3,2013-12-23 17:31:00,
2013-12-23 11:36:00,-9.1,-19.2,30.51,NW,311,5.0,12.0,60,0.00,,,0.00,vanprod-2.3,2013-12-23 17:36:00,
2013-12-23 11:41:00,-8.9,-19.0,30.51,NNW,328,5.0,7.0,60,0.00,,,0.00,vanprod-2.3,2013-12-23 17:41:00,
2013-12-23 11:46:00,-8.4,-18.5,30.51,NW,312,6.0,12.0,60,0.00,,,0.00,vanprod-2.3,2013-12-23 17:46:00,
2013-12-23 11:51:00,-8.7,-18.8,30.51,NW,310,5.0,8.0,60,0.00,,,0.00,vanprod-2.3,2013-12-23 17:51:00,
2013-12-23 11:56:00,-8.4,-18.5,30.51,North,357,5.0,7.0,60,0.00,,,0.00,vanprod-2.3,2013-12-23 17:56:00,
2013-12-23 12:01:00,-8.2,-18.4,30.50,North,360,5.0,6.0,60,0.00,,,0.00,vanprod-2.3,2013-12-23 18:01:00,
2013-12-23 12:06:00,-8.2,-18.4,30.50,North,352,6.0,10.0,60,0.00,,,0.00,vanprod-2.3,2013-12-23 18:06:00,
2013-12-23 12:11:00,-8.0,-18.2,30.50,NW,307,4.0,10.0,60,0.00,,,0.00,vanprod-2.3,2013-12-23 18:11:00,
2013-12-23 12:16:00,-8.0,-18.5,30.50,WNW,295,4.0,6.0,59,0.00,,,0.00,vanprod-2.3,2013-12-23 18:16:00,
2013-12-23 12:21:00,-7.5,-17.7,30.50,NW,311,5.0,8.0,60,0.00,,,0.00,vanprod-2.3,2013-12-23 18:21:00,
2013-12-23 12:26:00,-7.3,-17.8,30.49,NNW,348,5.0,8.0,59,0.00,,,0.00,vanprod-2.3,2013-12-23 18:26:00,
2013-12-23 12:31:00,-6.8,-17.4,30.49,WNW,294,3.0,4.0,59,0.00,,,0.00,vanprod-2.3,2013-12-23 18:31:00,
2013-12-23 12:36:00,-6.8,-17.4,30.49,NW,321,4.0,8.0,59,0.00,,,0.00,vanprod-2.3,2013-12-23 18:36:00,
2013-12-23 12:41:00,-6.8,-17.4,30.49,NNW,331,4.0,5.0,59,0.00,,,0.00,vanprod-2.3,2013-12-23 18:41:00,
2013-12-23 12:46:00,-6.6,-16.8,30.49,North,353,4.0,6.0,60,0.00,,,0.00,vanprod-2.3,2013-12-23 18:46:00,
2013-12-23 12:51:00,-6.4,-17.0,30.49,NNW,333,2.0,3.0,59,0.00,,,0.00,vanprod-2.3,2013-12-23 18:51:00,
2013-12-23 12:56:00,-6.4,-17.0,30.49,NW,316,5.0,7.0,59,0.00,,,0.00,vanprod-2.3,2013-12-23 18:56:00,
2013-12-23 13:01:00,-6.1,-16.7,30.49,NW,309,4.0,4.0,59,0.00,,,0.00,vanprod-2.3,2013-12-23 19:01:00,
2013-12-23 13:06:00,-5.9,-16.5,30.49,NNW,341,5.0,6.0,59,0.00,,,0.00,vanprod-2.3,2013-12-23 19:06:00,
2013-12-23 13:11:00,-5.9,-16.8,30.49,NW,324,2.0,8.0,58,0.00,,,0.00,vanprod-2.3,2013-12-23 19:11:00,
2013-12-23 13:16:00,-5.7,-16.3,30.49,NW,326,3.0,7.0,59,0.00,,,0.00,vanprod-2.3,2013-12-23 19:16:00,
2013-12-23 13:21:00,-5.7,-16.6,30.49,NW,322,3.0,11.0,58,0.00,,,0.00,vanprod-2.3,2013-12-23 19:21:00,
2013-12-23 13:26:00,-5.9,-17.2,30.48,NNW,338,4.0,7.0,57,0.00,,,0.00,vanprod-2.3,2013-12-23 19:26:00,
2013-12-23 13:31:00,-5.7,-16.6,30.48,NNW,338,7.0,10.0,58,0.00,,,0.00,vanprod-2.3,2013-12-23 19:31:00,
2013-12-23 13:36:00,-5.7,-16.3,30.48,NW,313,6.0,12.0,59,0.00,,,0.00,vanprod-2.3,2013-12-23 19:36:00,
2013-12-23 13:41:00,-5.7,-16.6,30.49,NW,319,6.0,11.0,58,0.00,,,0.00,vanprod-2.3,2013-12-23 19:41:00,
2013-12-23 13:46:00,-5.7,-16.6,30.49,WNW,300,5.0,7.0,58,0.00,,,0.00,vanprod-2.3,2013-12-23 19:46:00,
2013-12-23 13:51:00,-5.5,-16.5,30.49,NW,319,2.0,2.0,58,0.00,,,0.00,vanprod-2.3,2013-12-23 19:51:00,
2013-12-23 13:56:00,-5.5,-16.8,30.48,WNW,289,4.0,5.0,57,0.00,,,0.00,vanprod-2.3,2013-12-23 19:56:00,
2013-12-23 14:01:00,-5.5,-16.5,30.49,NNW,337,3.0,4.0,58,0.00,,,0.00,vanprod-2.3,2013-12-23 20:01:00,
2013-12-23 14:06:00,-5.3,-16.6,30.48,NW,316,3.0,6.0,57,0.00,,,0.00,vanprod-2.3,2013-12-23 20:06:00,
2013-12-23 14:11:00,-5.3,-16.6,30.48,NW,323,5.0,8.0,57,0.00,,,0.00,vanprod-2.3,2013-12-23 20:11:00,
2013-12-23 14:16:00,-5.3,-16.6,30.48,WNW,303,5.0,7.0,57,0.00,,,0.00,vanprod-2.3,2013-12-23 20:16:00,
2013-12-23 14:21:00,-5.5,-16.8,30.48,NW,320,4.0,5.0,57,0.00,,,0.00,vanprod-2.3,2013-12-23 20:21:00,
2013-12-23 14:26:00,-5.5,-16.8,30.48,NW,314,3.0,6.0,57,0.00,,,0.00,vanprod-2.3,2013-12-23 20:26:00,
2013-12-23 14:31:00,-5.5,-16.8,30.48,North,358,3.0,6.0,57,0.00,,,0.00,vanprod-2.3,2013-12-23 20:31:00,
2013-12-23 14:36:00,-5.3,-16.6,30.48,NNW,338,6.0,7.0,57,0.00,,,0.00,vanprod-2.3,2013-12-23 20:36:00,
2013-12-23 14:41:00,-5.5,-16.8,30.48,NW,319,5.0,7.0,57,0.00,,,0.00,vanprod-2.3,2013-12-23 20:41:00,
2013-12-23 14:46:00,-5.5,-16.8,30.48,NW,314,4.0,8.0,57,0.00,,,0.00,vanprod-2.3,2013-12-23 20:46:00,
2013-12-23 14:51:00,-5.3,-16.6,30.48,NW,318,4.0,10.0,57,0.00,,,0.00,vanprod-2.3,2013-12-23 20:51:00,
2013-12-23 14:56:00,-5.3,-16.6,30.48,NW,317,2.0,3.0,57,0.00,,,0.00,vanprod-2.3,2013-12-23 20:56:00,
2013-12-23 15:01:00,-5.1,-16.4,30.48,NW,323,4.0,12.0,57,0.00,,,0.00,vanprod-2.3,2013-12-23 21:01:00,
2013-12-23 15:06:00,-5.1,-16.4,30.48,NW,307,2.0,6.0,57,0.00,,,0.00,vanprod-2.3,2013-12-23 21:06:00,
2013-12-23 15:11:00,-5.1,-16.4,30.48,NW,305,5.0,12.0,57,0.00,,,0.00,vanprod-2.3,2013-12-23 21:11:00,
2013-12-23 15:16:00,-5.1,-16.4,30.48,NNW,328,3.0,5.0,57,0.00,,,0.00,vanprod-2.3,2013-12-23 21:16:00,
2013-12-23 15:21:00,-5.1,-16.4,30.48,WNW,300,4.0,7.0,57,0.00,,,0.00,vanprod-2.3,2013-12-23 21:21:00,
2013-12-23 15:26:00,-5.1,-16.4,30.48,NW,312,4.0,7.0,57,0.00,,,0.00,vanprod-2.3,2013-12-23 21:26:00,
2013-12-23 15:31:00,-5.1,-16.4,30.49,NW,325,3.0,7.0,57,0.00,,,0.00,vanprod-2.3,2013-12-23 21:31:00,
2013-12-23 15:36:00,-5.1,-16.8,30.49,North,357,2.0,2.0,56,0.00,,,0.00,vanprod-2.3,2013-12-23 21:36:00,
2013-12-23 15:41:00,-5.3,-17.0,30.49,NW,306,4.0,5.0,56,0.00,,,0.00,vanprod-2.3,2013-12-23 21:41:00,
2013-12-23 15:46:00,-5.3,-17.0,30.49,NNW,341,4.0,6.0,56,0.00,,,0.00,vanprod-2.3,2013-12-23 21:46:00,
2013-12-23 15:51:00,-5.5,-17.1,30.49,NW,307,4.0,4.0,56,0.00,,,0.00,vanprod-2.3,2013-12-23 21:51:00,
2013-12-23 15:56:00,-5.5,-17.1,30.49,NW,312,3.0,6.0,56,0.00,,,0.00,vanprod-2.3,2013-12-23 21:56:00,
2013-12-23 16:01:00,-5.5,-17.1,30.50,NW,313,4.0,6.0,56,0.00,,,0.00,vanprod-2.3,2013-12-23 22:01:00,
2013-12-23 16:06:00,-5.7,-17.3,30.50,NW,304,3.0,4.0,56,0.00,,,0.00,vanprod-2.3,2013-12-23 22:06:00,
2013-12-23 16:11:00,-5.9,-17.5,30.50,NW,314,3.0,3.0,56,0.00,,,0.00,vanprod-2.3,2013-12-23 22:11:00,
2013-12-23 16:16:00,-6.1,-17.4,30.50,NW,313,2.0,3.0,57,0.00,,,0.00,vanprod-2.3,2013-12-23 22:16:00,
2013-12-23 16:21:00,-6.4,-17.6,30.51,NW,318,4.0,6.0,57,0.00,,,0.00,vanprod-2.3,2013-12-23 22:21:00,
2013-12-23 16:26:00,-6.6,-17.8,30.51,NNW,335,3.0,6.0,57,0.00,,,0.00,vanprod-2.3,2013-12-23 22:26:00,
2013-12-23 16:31:00,-6.6,-17.8,30.51,NNW,342,2.0,5.0,57,0.00,,,0.00,vanprod-2.3,2013-12-23 22:31:00,
2013-12-23 16:36:00,-6.6,-17.5,30.51,NNW,342,2.0,5.0,58,0.00,,,0.00,vanprod-2.3,2013-12-23 22:36:00,
2013-12-23 16:41:00,-6.8,-17.7,30.51,WNW,298,3.0,3.0,58,0.00,,,0.00,vanprod-2.3,2013-12-23 22:41:00,
2013-12-23 16:46:00,-6.8,-18.0,30.51,WNW,301,2.0,2.0,57,0.00,,,0.00,vanprod-2.3,2013-12-23 22:46:00,
2013-12-23 16:51:00,-7.0,-17.9,30.51,WNW,301,2.0,3.0,58,0.00,,,0.00,vanprod-2.3,2013-12-23 22:51:00,
2013-12-23 16:56:00,-7.3,-18.2,30.51,NW,316,2.0,2.0,58,0.00,,,0.00,vanprod-2.3,2013-12-23 22:56:00,
2013-12-23 17:01:00,-7.5,-18.3,30.51,NW,311,1.0,2.0,58,0.00,,,0.00,vanprod-2.3,2013-12-23 23:01:00,
2013-12-23 17:06:00,-7.5,-18.0,30.51,NW,311,1.0,4.0,59,0.00,,,0.00,vanprod-2.3,2013-12-23 23:06:00,
2013-12-23 17:11:00,-7.7,-18.2,30.51,NW,311,1.0,2.0,59,0.00,,,0.00,vanprod-2.3,2013-12-23 23:11:00,
2013-12-23 17:16:00,-8.0,-18.2,30.51,NW,312,4.0,4.0,60,0.00,,,0.00,vanprod-2.3,2013-12-23 23:16:00,
2013-12-23 17:21:00,-8.0,-18.2,30.51,NW,312,1.0,2.0,60,0.00,,,0.00,vanprod-2.3,2013-12-23 23:21:00,
2013-12-23 17:26:00,-8.2,-18.7,30.51,NW,313,2.0,2.0,59,0.00,,,0.00,vanprod-2.3,2013-12-23 23:26:00,
2013-12-23 17:31:00,-8.2,-18.4,30.51,NW,313,2.0,3.0,60,0.00,,,0.00,vanprod-2.3,2013-12-23 23:31:00,
2013-12-23 17:36:00,-8.4,-18.9,30.51,NW,313,3.0,3.0,59,0.00,,,0.00,vanprod-2.3,2013-12-23 23:36:00,
2013-12-23 17:41:00,-8.4,-18.9,30.51,NW,304,1.0,2.0,59,0.00,,,0.00,vanprod-2.3,2013-12-23 23:41:00,
2013-12-23 17:46:00,-8.7,-19.2,30.51,NW,305,2.0,2.0,59,0.00,,,0.00,vanprod-2.3,2013-12-23 23:46:00,
2013-12-23 17:51:00,-8.7,-19.2,30.52,NW,310,2.0,6.0,59,0.00,,,0.00,vanprod-2.3,2013-12-23 23:51:00,
2013-12-23 17:56:00,-8.9,-19.3,30.52,WNW,288,2.0,4.0,59,0.00,,,0.00,vanprod-2.3,2013-12-23 23:56:00,
2013-12-23 18:01:00,-8.9,-19.3,30.52,WNW,288,2.0,3.0,59,0.00,,,0.00,vanprod-2.3,2013-12-24 00:01:00,
2013-12-23 18:06:00,-8.9,-19.7,30.51,WNW,296,1.0,3.0,58,0.00,,,0.00,vanprod-2.3,2013-12-24 00:06:00,
2013-12-23 18:11:00,-9.1,-19.5,30.51,WNW,295,1.0,6.0,59,0.00,,,0.00,vanprod-2.3,2013-12-24 00:11:00,
2013-12-23 18:16:00,-9.1,-19.5,30.51,WNW,293,0.0,0.0,59,0.00,,,0.00,vanprod-2.3,2013-12-24 00:16:00,
2013-12-23 18:21:00,-9.4,-19.8,30.51,WNW,292,0.0,1.0,59,0.00,,,0.00,vanprod-2.3,2013-12-24 00:21:00,
2013-12-23 18:26:00,-9.4,-19.5,30.51,WNW,292,1.0,1.0,60,0.00,,,0.00,vanprod-2.3,2013-12-24 00:26:00,
2013-12-23 18:31:00,-9.6,-19.7,30.52,WNW,292,0.0,0.0,60,0.00,,,0.00,vanprod-2.3,2013-12-24 00:31:00,
2013-12-23 18:36:00,-9.8,-19.6,30.51,WNW,294,1.0,1.0,61,0.00,,,0.00,vanprod-2.3,2013-12-24 00:36:00,
2013-12-23 18:41:00,-9.8,-19.6,30.51,WNW,294,1.0,2.0,61,0.00,,,0.00,vanprod-2.3,2013-12-24 00:41:00,
2013-12-23 18:46:00,-9.8,-19.6,30.51,NW,304,3.0,6.0,61,0.00,,,0.00,vanprod-2.3,2013-12-24 00:46:00,
2013-12-23 18:51:00,-9.8,-19.6,30.52,North,354,1.0,1.0,61,0.00,,,0.00,vanprod-2.3,2013-12-24 00:51:00,
2013-12-23 18:56:00,-10.1,-20.2,30.52,North,353,1.0,1.0,60,0.00,,,0.00,vanprod-2.3,2013-12-24 00:56:00,
2013-12-23 19:01:00,-10.1,-19.8,30.52,North,352,3.0,5.0,61,0.00,,,0.00,vanprod-2.3,2013-12-24 01:01:00,
2013-12-23 19:06:00,-10.3,-20.0,30.52,North,352,1.0,1.0,61,0.00,,,0.00,vanprod-2.3,2013-12-24 01:06:00,
2013-12-23 19:11:00,-10.3,-20.0,30.51,North,352,1.0,1.0,61,0.00,,,0.00,vanprod-2.3,2013-12-24 01:11:00,
2013-12-23 19:16:00,-10.3,-20.0,30.52,North,352,1.0,1.0,61,0.00,,,0.00,vanprod-2.3,2013-12-24 01:16:00,
2013-12-23 19:21:00,-10.5,-20.2,30.51,North,352,1.0,1.0,61,0.00,,,0.00,vanprod-2.3,2013-12-24 01:21:00,
2013-12-23 19:26:00,-10.5,-20.2,30.51,North,352,1.0,2.0,61,0.00,,,0.00,vanprod-2.3,2013-12-24 01:26:00,
2013-12-23 19:31:00,-10.5,-20.2,30.50,North,352,0.0,1.0,61,0.00,,,0.00,vanprod-2.3,2013-12-24 01:31:00,
2013-12-23 19:36:00,-10.5,-19.9,30.50,North,352,1.0,1.0,62,0.00,,,0.00,vanprod-2.3,2013-12-24 01:36:00,
2013-12-23 19:41:00,-10.5,-19.9,30.50,North,352,0.0,0.0,62,0.00,,,0.00,vanprod-2.3,2013-12-24 01:41:00,
2013-12-23 19:46:00,-10.8,-20.2,30.50,North,352,0.0,0.0,62,0.00,,,0.00,vanprod-2.3,2013-12-24 01:46:00,
2013-12-23 19:51:00,-10.8,-20.2,30.50,North,352,0.0,0.0,62,0.00,,,0.00,vanprod-2.3,2013-12-24 01:51:00,
2013-12-23 19:56:00,-11.0,-20.1,30.50,North,352,0.0,0.0,63,0.00,,,0.00,vanprod-2.3,2013-12-24 01:56:00,
2013-12-23 20:01:00,-11.2,-20.0,30.51,North,352,1.0,2.0,64,0.00,,,0.00,vanprod-2.3,2013-12-24 02:01:00,
2013-12-23 20:06:00,-11.2,-20.0,30.51,North,352,0.0,0.0,64,0.00,,,0.00,vanprod-2.3,2013-12-24 02:06:00,
2013-12-23 20:11:00,-11.5,-20.3,30.51,North,352,0.0,0.0,64,0.00,,,0.00,vanprod-2.3,2013-12-24 02:11:00,
2013-12-23 20:16:00,-11.7,-20.4,30.51,North,352,0.0,0.0,64,0.00,,,0.00,vanprod-2.3,2013-12-24 02:16:00,
2013-12-23 20:21:00,-11.7,-20.1,30.50,North,352,0.0,0.0,65,0.00,,,0.00,vanprod-2.3,2013-12-24 02:21:00,
2013-12-23 20:26:00,-12.0,-20.4,30.50,North,352,0.0,0.0,65,0.00,,,0.00,vanprod-2.3,2013-12-24 02:26:00,
2013-12-23 20:31:00,-12.0,-20.4,30.50,North,352,0.0,0.0,65,0.00,,,0.00,vanprod-2.3,2013-12-24 02:31:00,
2013-12-23 20:36:00,-12.2,-20.6,30.50,North,352,0.0,0.0,65,0.00,,,0.00,vanprod-2.3,2013-12-24 02:36:00,
2013-12-23 20:41:00,-12.2,-20.3,30.51,North,352,2.0,3.0,66,0.00,,,0.00,vanprod-2.3,2013-12-24 02:41:00,
2013-12-23 20:46:00,-12.5,-20.6,30.51,North,352,0.0,0.0,66,0.00,,,0.00,vanprod-2.3,2013-12-24 02:46:00,
2013-12-23 20:51:00,-12.7,-20.8,30.51,North,352,0.0,1.0,66,0.00,,,0.00,vanprod-2.3,2013-12-24 02:51:00,
2013-12-23 20:56:00,-13.0,-21.1,30.51,North,352,0.0,1.0,66,0.00,,,0.00,vanprod-2.3,2013-12-24 02:56:00,
2013-12-23 21:01:00,-13.3,-21.1,30.51,North,352,0.0,0.0,67,0.00,,,0.00,vanprod-2.3,2013-12-24 03:01:00,
2013-12-23 21:06:00,-13.3,-21.4,30.50,North,352,1.0,1.0,66,0.00,,,0.00,vanprod-2.3,2013-12-24 03:06:00,
2013-12-23 21:11:00,-13.3,-21.4,30.50,North,352,1.0,1.0,66,0.00,,,0.00,vanprod-2.3,2013-12-24 03:11:00,
2013-12-23 21:16:00,-13.3,-21.4,30.49,North,352,1.0,1.0,66,0.00,,,0.00,vanprod-2.3,2013-12-24 03:16:00,
2013-12-23 21:21:00,-13.3,-21.4,30.48,North,352,0.0,0.0,66,0.00,,,0.00,vanprod-2.3,2013-12-24 03:21:00,
2013-12-23 21:26:00,-13.3,-21.4,30.48,North,352,0.0,0.0,66,0.00,,,0.00,vanprod-2.3,2013-12-24 03:26:00,
2013-12-23 21:31:00,-13.3,-21.4,30.48,North,352,0.0,0.0,66,0.00,,,0.00,vanprod-2.3,2013-12-24 03:31:00,
2013-12-23 21:36:00,-13.3,-21.1,30.48,North,352,0.0,0.0,67,0.00,,,0.00,vanprod-2.3,2013-12-24 03:36:00,
2013-12-23 21:41:00,-13.5,-21.3,30.48,North,352,0.0,0.0,67,0.00,,,0.00,vanprod-2.3,2013-12-24 03:41:00,
2013-12-23 21:46:00,-13.5,-21.3,30.48,North,352,0.0,0.0,67,0.00,,,0.00,vanprod-2.3,2013-12-24 03:46:00,
2013-12-23 21:51:00,-13.8,-21.6,30.48,North,352,0.0,0.0,67,0.00,,,0.00,vanprod-2.3,2013-12-24 03:51:00,
2013-12-23 21:56:00,-14.0,-21.8,30.48,North,352,0.0,0.0,67,0.00,,,0.00,vanprod-2.3,2013-12-24 03:56:00,
2013-12-23 22:01:00,-14.3,-22.1,30.48,North,352,0.0,0.0,67,0.00,,,0.00,vanprod-2.3,2013-12-24 04:01:00,
2013-12-23 22:06:00,-14.3,-21.8,30.48,North,352,0.0,0.0,68,0.00,,,0.00,vanprod-2.3,2013-12-24 04:06:00,
2013-12-23 22:11:00,-14.5,-22.0,30.47,North,352,0.0,0.0,68,0.00,,,0.00,vanprod-2.3,2013-12-24 04:11:00,
2013-12-23 22:16:00,-14.5,-22.0,30.47,North,352,0.0,0.0,68,0.00,,,0.00,vanprod-2.3,2013-12-24 04:16:00,
2013-12-23 22:21:00,-14.8,-22.0,30.47,North,352,0.0,0.0,69,0.00,,,0.00,vanprod-2.3,2013-12-24 04:21:00,
2013-12-23 22:26:00,-14.8,-22.0,30.47,North,352,0.0,0.0,69,0.00,,,0.00,vanprod-2.3,2013-12-24 04:26:00,
2013-12-23 22:31:00,-14.8,-22.0,30.47,North,352,0.0,0.0,69,0.00,,,0.00,vanprod-2.3,2013-12-24 04:31:00,
2013-12-23 22:36:00,-14.8,-22.0,30.47,North,352,0.0,0.0,69,0.00,,,0.00,vanprod-2.3,2013-12-24 04:36:00,
2013-12-23 22:41:00,-14.8,-22.0,30.46,North,352,0.0,0.0,69,0.00,,,0.00,vanprod-2.3,2013-12-24 04:41:00,
2013-12-23 22:46:00,-14.8,-22.0,30.46,North,352,0.0,0.0,69,0.00,,,0.00,vanprod-2.3,2013-12-24 04:46:00,
2013-12-23 22:51:00,-15.1,-22.3,30.46,North,352,0.0,0.0,69,0.00,,,0.00,vanprod-2.3,2013-12-24 04:51:00,
2013-12-23 22:56:00,-14.8,-21.7,30.46,North,352,0.0,0.0,70,0.00,,,0.00,vanprod-2.3,2013-12-24 04:56:00,
2013-12-23 23:01:00,-14.8,-21.7,30.46,North,352,0.0,0.0,70,0.00,,,0.00,vanprod-2.3,2013-12-24 05:01:00,
2013-12-23 23:02:00,-14.8,-21.7,30.46,North,352,0.0,0.0,70,0.00,,,0.00,vanprod-2.3,2013-12-24 05:02:00,
2013-12-23 23:07:00,-15.1,-22.0,30.46,North,352,0.0,0.0,70,0.00,,,0.00,vanprod-2.3,2013-12-24 05:07:00,
2013-12-23 23:12:00,-15.1,-22.0,30.46,North,352,0.0,0.0,70,0.00,,,0.00,vanprod-2.3,2013-12-24 05:12:00,
2013-12-23 23:17:00,-15.1,-22.0,30.46,North,352,0.0,0.0,70,0.00,,,0.00,vanprod-2.3,2013-12-24 05:17:00,
2013-12-23 23:22:00,-15.1,-22.0,30.46,North,352,1.0,1.0,70,0.00,,,0.00,vanprod-2.3,2013-12-24 05:22:00,
2013-12-23 23:27:00,-15.3,-22.2,30.46,North,352,0.0,0.0,70,0.00,,,0.00,vanprod-2.3,2013-12-24 05:27:00,
2013-12-23 23:32:00,-15.6,-22.8,30.45,North,352,0.0,0.0,69,0.00,,,0.00,vanprod-2.3,2013-12-24 05:32:00,
2013-12-23 23:37:00,-15.6,-22.5,30.45,North,352,0.0,0.0,70,0.00,,,0.00,vanprod-2.3,2013-12-24 05:37:00,
2013-12-23 23:42:00,-15.6,-22.5,30.45,North,352,0.0,0.0,70,0.00,,,0.00,vanprod-2.3,2013-12-24 05:42:00,
2013-12-23 23:47:00,-15.8,-22.7,30.45,North,352,0.0,0.0,70,0.00,,,0.00,vanprod-2.3,2013-12-24 05:47:00,
2013-12-23 23:52:00,-16.1,-23.0,30.45,North,352,0.0,0.0,70,0.00,,,0.00,vanprod-2.3,2013-12-24 05:52:00,
2013-12-23 23:57:00,-16.1,-23.0,30.44,North,352,0.0,0.0,70,0.00,,,0.00,vanprod-2.3,2013-12-24 05:57:00,